Time;durP1;ratioP1;P1;durP2;ratioP2;P2;SDS_P1;SDS_P2;PMS_P1;PMS_P2;Temp;Humidity;BMP_temperature;BMP_pressure;BME280_temperature;BME280_humidity;BME280_pressure;Samples;Min_cycle;Max_cycle;Signal;HPM_P1;HPM_P2
2024/01/27 00:00:19;;;;;;;4.57;1.02;;;8.60;99.90;;;;;;10469907;28;20020;-67
2024/01/27 00:05:20;;;;;;;3.33;1.05;;;8.60;99.90;;;;;;10467921;28;20382;-68
2024/01/27 00:10:20;;;;;;;4.93;1.00;;;8.50;99.90;;;;;;10468247;28;20020;-67
2024/01/27 00:15:21;;;;;;;4.13;1.00;;;8.50;99.90;;;;;;10471847;28;20031;-67
2024/01/27 00:20:21;;;;;;;6.25;1.15;;;8.50;99.90;;;;;;10463115;28;20028;-67
2024/01/27 00:25:22;;;;;;;2.53;0.80;;;8.50;99.90;;;;;;10461052;28;20037;-67
2024/01/27 00:30:23;;;;;;;3.92;0.93;;;8.50;99.90;;;;;;10475790;28;20537;-67
2024/01/27 00:35:23;;;;;;;5.80;1.13;;;8.50;99.90;;;;;;10452806;28;20036;-67
2024/01/27 00:40:24;;;;;;;5.15;1.10;;;8.40;99.90;;;;;;10464884;28;20034;-67
2024/01/27 00:45:27;;;;;;;2.67;1.02;;;8.40;99.90;;;;;;10468575;28;20032;-67
2024/01/27 00:50:27;;;;;;;2.42;0.82;;;8.40;99.90;;;;;;10460998;28;20071;-67
2024/01/27 00:55:28;;;;;;;2.40;1.00;;;8.40;99.90;;;;;;10474489;28;20017;-67
2024/01/27 01:00:29;;;;;;;5.30;1.30;;;8.40;99.90;;;;;;10461094;28;20032;-67
2024/01/27 01:05:29;;;;;;;5.75;1.65;;;8.30;99.90;;;;;;10460501;28;20496;-67
2024/01/27 01:10:30;;;;;;;3.67;1.55;;;8.30;99.90;;;;;;10470808;28;20652;-67
2024/01/27 01:15:31;;;;;;;2.45;0.95;;;8.30;99.90;;;;;;10473021;28;20457;-67
2024/01/27 01:20:32;;;;;;;4.00;1.00;;;8.40;99.90;;;;;;10461530;28;20024;-67
2024/01/27 01:25:33;;;;;;;2.25;1.42;;;8.30;99.90;;;;;;10461706;28;20438;-67
2024/01/27 01:30:33;;;;;;;3.33;1.10;;;8.30;99.90;;;;;;10466614;28;20012;-67
2024/01/27 01:35:34;;;;;;;2.60;1.05;;;8.30;99.90;;;;;;10463466;28;20020;-67
2024/01/27 01:40:34;;;;;;;2.22;1.00;;;8.30;99.90;;;;;;10468840;28;20032;-67
2024/01/27 01:45:35;;;;;;;2.25;0.88;;;8.30;99.90;;;;;;10465328;28;20025;-67
2024/01/27 01:50:36;;;;;;;1.75;1.13;;;8.20;99.90;;;;;;10470572;28;20159;-67
2024/01/27 01:55:36;;;;;;;3.00;1.00;;;8.20;99.90;;;;;;10468353;28;20033;-67
2024/01/27 02:00:37;;;;;;;4.15;0.90;;;8.20;99.90;;;;;;10453403;28;20119;-68
2024/01/27 02:05:38;;;;;;;4.15;1.15;;;8.20;99.90;;;;;;10453307;28;20087;-67
2024/01/27 02:10:39;;;;;;;3.13;0.90;;;8.20;99.90;;;;;;10458048;28;20020;-67
2024/01/27 02:15:39;;;;;;;1.67;1.10;;;8.10;99.90;;;;;;10446723;28;20090;-68
2024/01/27 02:20:40;;;;;;;2.47;0.88;;;8.20;99.90;;;;;;10461437;28;20025;-67
2024/01/27 02:25:40;;;;;;;2.63;1.02;;;8.20;99.90;;;;;;10462892;28;20051;-67
2024/01/27 02:30:41;;;;;;;2.47;0.88;;;8.10;99.90;;;;;;10460045;28;20017;-67
2024/01/27 02:35:43;;;;;;;2.40;1.20;;;8.10;99.90;;;;;;10456755;28;20017;-67
2024/01/27 02:40:44;;;;;;;1.92;0.95;;;8.10;99.90;;;;;;10454519;28;20496;-67
2024/01/27 02:45:44;;;;;;;1.98;1.00;;;8.10;99.90;;;;;;10458171;28;20078;-67
2024/01/27 02:50:45;;;;;;;3.33;1.10;;;8.10;99.90;;;;;;10452254;28;20016;-67
2024/01/27 02:55:45;;;;;;;2.45;1.10;;;8.10;99.90;;;;;;10453075;28;20506;-67
2024/01/27 03:00:46;;;;;;;2.70;1.10;;;8.10;99.90;;;;;;10464472;28;20021;-67
2024/01/27 03:05:46;;;;;;;3.90;1.17;;;8.00;99.90;;;;;;10465072;28;20025;-67
2024/01/27 03:10:47;;;;;;;3.13;1.02;;;8.00;99.90;;;;;;10462568;28;20107;-67
2024/01/27 03:15:49;;;;;;;4.90;1.15;;;8.00;99.90;;;;;;10463878;28;20036;-67
2024/01/27 03:20:49;;;;;;;3.42;1.02;;;8.00;99.90;;;;;;10460343;28;20495;-67
2024/01/27 03:25:50;;;;;;;2.35;1.00;;;8.00;99.90;;;;;;10459108;28;20039;-67
2024/01/27 03:30:50;;;;;;;4.28;1.00;;;8.00;99.90;;;;;;10461459;28;20021;-67
2024/01/27 03:35:51;;;;;;;5.15;1.20;;;8.00;99.90;;;;;;10454306;28;20033;-67
2024/01/27 03:40:52;;;;;;;3.38;1.00;;;7.90;99.90;;;;;;10462147;28;20083;-67
2024/01/27 03:45:52;;;;;;;2.95;1.23;;;7.90;99.90;;;;;;10455641;28;20481;-67
2024/01/27 03:50:53;;;;;;;2.05;0.80;;;7.90;99.90;;;;;;10436006;28;20029;-67
2024/01/27 03:55:53;;;;;;;5.13;1.48;;;7.90;99.90;;;;;;10456480;28;20033;-66
2024/01/27 04:00:54;;;;;;;5.72;1.13;;;7.90;99.90;;;;;;10460512;28;20025;-67
2024/01/27 04:05:55;;;;;;;3.15;1.10;;;7.90;99.90;;;;;;10468375;28;20104;-67
2024/01/27 04:10:55;;;;;;;2.90;1.17;;;7.90;99.90;;;;;;10462478;28;20469;-67
2024/01/27 04:15:59;;;;;;;3.95;1.13;;;8.00;99.90;;;;;;10447339;28;20158;-67
2024/01/27 04:21:00;;;;;;;2.58;0.82;;;8.10;99.90;;;;;;10454095;28;20067;-66
2024/01/27 04:26:02;;;;;;;4.78;1.30;;;7.80;99.90;;;;;;10453529;28;20285;-67
2024/01/27 04:31:03;;;;;;;3.53;1.30;;;7.80;99.90;;;;;;10463372;28;20086;-67
2024/01/27 04:36:06;;;;;;;5.10;1.17;;;7.80;99.90;;;;;;10455817;28;20036;-67
2024/01/27 04:41:07;;;;;;;4.10;1.15;;;7.80;99.90;;;;;;10456164;28;20041;-66
2024/01/27 04:46:07;;;;;;;2.42;1.00;;;7.80;99.90;;;;;;10458551;28;20037;-67
2024/01/27 04:51:08;;;;;;;6.65;1.40;;;7.80;99.90;;;;;;10454816;28;20024;-67
2024/01/27 04:56:09;;;;;;;7.60;1.20;;;7.80;99.90;;;;;;10459698;28;20020;-67
2024/01/27 05:01:10;;;;;;;3.80;1.13;;;7.70;99.90;;;;;;10454136;28;20029;-67
2024/01/27 05:06:10;;;;;;;3.42;1.20;;;7.70;99.90;;;;;;10456500;28;20091;-67
2024/01/27 05:11:11;;;;;;;6.00;1.30;;;7.70;99.90;;;;;;10456121;28;20014;-67
2024/01/27 05:16:12;;;;;;;3.42;1.20;;;7.70;99.90;;;;;;10460184;28;20036;-67
2024/01/27 05:21:12;;;;;;;2.97;1.20;;;7.70;99.90;;;;;;10454690;28;20053;-66
2024/01/27 05:26:13;;;;;;;2.45;1.20;;;7.70;99.90;;;;;;10462260;28;20040;-67
2024/01/27 05:31:13;;;;;;;2.22;0.98;;;7.70;99.90;;;;;;10449447;28;20033;-67
2024/01/27 05:36:14;;;;;;;4.05;1.42;;;8.10;99.90;;;;;;10460022;28;20047;-66
2024/01/27 05:41:14;;;;;;;3.60;1.35;;;7.60;99.90;;;;;;10448618;28;20051;-66
2024/01/27 05:46:15;;;;;;;2.22;1.17;;;7.60;99.90;;;;;;10452625;28;20031;-67
2024/01/27 05:51:15;;;;;;;2.50;1.15;;;7.60;99.90;;;;;;10458637;28;20098;-66
2024/01/27 05:56:20;;;;;;;3.95;1.60;;;7.60;99.90;;;;;;10451777;28;20025;-67
2024/01/27 06:01:21;;;;;;;4.60;1.45;;;7.60;99.90;;;;;;10447150;28;20025;-67
2024/01/27 06:06:21;;;;;;;4.40;1.23;;;7.60;99.90;;;;;;10449556;28;20508;-67
2024/01/27 06:11:26;;;;;;;4.43;1.40;;;7.60;99.90;;;;;;10452959;28;20025;-67
2024/01/27 06:16:26;;;;;;;3.17;1.25;;;7.50;99.90;;;;;;10461950;28;20028;-67
2024/01/27 06:21:27;;;;;;;2.70;1.20;;;7.50;99.90;;;;;;10452119;28;20070;-66
2024/01/27 06:26:27;;;;;;;3.28;1.20;;;7.50;99.90;;;;;;10442675;28;20026;-67
2024/01/27 06:31:28;;;;;;;4.70;1.45;;;7.50;99.90;;;;;;10459177;28;20017;-67
2024/01/27 06:36:29;;;;;;;5.03;1.40;;;7.50;99.90;;;;;;10461103;28;20032;-68
2024/01/27 06:41:29;;;;;;;3.80;1.27;;;7.50;99.90;;;;;;10456303;28;20086;-67
2024/01/27 06:46:31;;;;;;;2.30;1.33;;;7.50;99.90;;;;;;10462074;28;20029;-67
2024/01/27 06:51:31;;;;;;;3.13;1.70;;;7.50;99.90;;;;;;10458492;28;20017;-67
2024/01/27 06:56:32;;;;;;;5.85;1.25;;;7.50;99.90;;;;;;10463973;28;20031;-67
2024/01/27 07:01:32;;;;;;;1.98;1.10;;;7.40;99.90;;;;;;10453885;28;20029;-66
2024/01/27 07:06:33;;;;;;;2.63;1.40;;;7.40;99.90;;;;;;10445445;28;20028;-67
2024/01/27 07:11:33;;;;;;;3.42;1.30;;;7.40;99.90;;;;;;10450074;28;20273;-67
2024/01/27 07:16:34;;;;;;;4.00;1.40;;;7.40;99.90;;;;;;10458688;28;20041;-68
2024/01/27 07:21:35;;;;;;;6.68;1.60;;;7.40;99.90;;;;;;10460755;28;20024;-67
2024/01/27 07:26:36;;;;;;;2.88;1.30;;;7.40;99.90;;;;;;10459021;28;20523;-67
2024/01/27 07:31:36;;;;;;;3.28;1.45;;;7.40;99.90;;;;;;10466069;28;20017;-67
2024/01/27 07:36:37;;;;;;;3.03;1.60;;;7.40;99.90;;;;;;10461601;28;20032;-67
2024/01/27 07:41:37;;;;;;;4.72;1.60;;;7.40;99.90;;;;;;10466848;28;20509;-68
2024/01/27 07:46:39;;;;;;;5.32;1.83;;;7.40;99.90;;;;;;10464662;28;20076;-67
2024/01/27 07:51:39;;;;;;;2.95;1.60;;;7.40;99.90;;;;;;10465495;28;20025;-68
2024/01/27 07:56:41;;;;;;;3.25;1.50;;;7.40;99.90;;;;;;10467659;28;20448;-67
2024/01/27 08:01:42;;;;;;;3.22;1.30;;;7.40;99.90;;;;;;10462763;28;20024;-67
2024/01/27 08:06:49;;;;;;;5.05;1.42;;;7.30;99.90;;;;;;10463050;28;20021;-67
2024/01/27 08:11:52;;;;;;;4.47;1.75;;;7.30;99.90;;;;;;10467534;28;20016;-68
2024/01/27 08:16:52;;;;;;;6.43;2.00;;;7.30;99.90;;;;;;10468655;28;20017;-67
2024/01/27 08:21:53;;;;;;;3.67;1.40;;;7.30;99.90;;;;;;10467474;28;20033;-67
2024/01/27 08:26:54;;;;;;;2.25;1.42;;;7.30;99.90;;;;;;10462830;28;20016;-67
2024/01/27 08:31:54;;;;;;;5.97;1.73;;;7.30;99.90;;;;;;10452535;28;20670;-68
2024/01/27 08:37:02;;;;;;;5.10;1.48;;;7.30;99.90;;;;;;10466978;28;20418;-67
2024/01/27 08:42:02;;;;;;;5.35;2.10;;;7.30;99.90;;;;;;10470819;28;20057;-67
2024/01/27 08:47:03;;;;;;;6.18;1.85;;;7.30;99.90;;;;;;10464837;28;20116;-67
2024/01/27 08:52:04;;;;;;;2.75;1.60;;;7.40;99.90;;;;;;10463759;28;20108;-66
2024/01/27 08:57:05;;;;;;;2.90;1.30;;;7.40;99.90;;;;;;10462598;28;20575;-67
2024/01/27 09:02:05;;;;;;;3.05;1.88;;;7.40;99.90;;;;;;10463506;28;20069;-67
2024/01/27 09:07:06;;;;;;;5.13;1.80;;;7.40;99.90;;;;;;10471686;28;20027;-67
2024/01/27 09:12:07;;;;;;;3.78;1.60;;;7.40;99.90;;;;;;10455837;28;20102;-67
2024/01/27 09:17:07;;;;;;;6.80;2.20;;;7.40;99.90;;;;;;10457474;28;20029;-68
2024/01/27 09:22:08;;;;;;;2.95;1.95;;;7.50;99.90;;;;;;10458138;28;20108;-68
2024/01/27 09:27:08;;;;;;;4.75;1.95;;;7.50;99.90;;;;;;10453787;28;20109;-68
2024/01/27 09:32:09;;;;;;;3.88;2.05;;;7.50;99.90;;;;;;10460078;28;20393;-68
2024/01/27 09:37:09;;;;;;;4.80;2.13;;;7.50;99.90;;;;;;10461057;28;20036;-68
2024/01/27 09:42:13;;;;;;;5.57;2.00;;;7.60;99.90;;;;;;10451532;28;20043;-68
2024/01/27 09:47:15;;;;;;;4.18;2.00;;;7.60;99.90;;;;;;10461155;28;20041;-67
2024/01/27 09:52:15;;;;;;;3.50;1.90;;;7.70;99.90;;;;;;10461385;28;20044;-67
2024/01/27 09:57:18;;;;;;;5.07;1.58;;;7.70;99.90;;;;;;10464546;28;20512;-68
2024/01/27 10:02:20;;;;;;;7.93;2.15;;;7.70;99.90;;;;;;10467509;28;20097;-67
2024/01/27 10:07:22;;;;;;;5.10;2.45;;;7.80;99.90;;;;;;10467623;28;20028;-67
2024/01/27 10:12:25;;;;;;;4.95;2.10;;;7.80;99.90;;;;;;10465820;28;20014;-68
2024/01/27 10:17:32;;;;;;;6.32;2.65;;;8.00;99.90;;;;;;10457165;28;20024;-71
2024/01/27 10:22:42;;;;;;;5.03;2.42;;;8.00;99.90;;;;;;10458568;28;20039;-70
2024/01/27 10:27:45;;;;;;;6.40;2.17;;;8.10;99.90;;;;;;10458945;28;20029;-68
2024/01/27 10:32:56;;;;;;;9.32;2.97;;;8.30;99.90;;;;;;10457509;28;20024;-68
2024/01/27 10:37:57;;;;;;;4.65;2.25;;;8.70;99.90;;;;;;10463197;28;20582;-69
2024/01/27 10:43:01;;;;;;;6.10;2.60;;;8.50;99.90;;;;;;10465925;28;20028;-68
2024/01/27 10:48:03;;;;;;;5.65;2.70;;;8.60;99.90;;;;;;10467402;28;20064;-68
2024/01/27 10:53:09;;;;;;;8.05;2.88;;;8.70;99.90;;;;;;10444666;28;20028;-68
2024/01/27 10:58:11;;;;;;;5.22;2.45;;;8.70;99.90;;;;;;10452016;28;20019;-68
2024/01/27 11:03:12;;;;;;;4.32;2.13;;;8.80;99.90;;;;;;10457681;28;20057;-68
2024/01/27 11:08:16;;;;;;;5.50;2.65;;;8.90;99.90;;;;;;10468962;28;20666;-68
2024/01/27 11:13:17;;;;;;;3.50;2.13;;;8.90;99.90;;;;;;10465575;28;20024;-69
2024/01/27 11:18:17;;;;;;;5.90;2.90;;;9.00;99.90;;;;;;10467232;28;20029;-68
2024/01/27 11:23:18;;;;;;;9.82;3.15;;;9.00;99.90;;;;;;10459570;28;20043;-70
2024/01/27 11:28:25;;;;;;;7.30;2.85;;;9.20;99.90;;;;;;10466899;28;20033;-69
2024/01/27 11:33:26;;;;;;;5.55;2.75;;;9.10;99.90;;;;;;10467708;28;20056;-69
2024/01/27 11:38:27;;;;;;;6.47;2.63;;;9.20;99.90;;;;;;10454099;28;20039;-68
2024/01/27 11:43:28;;;;;;;14.02;3.50;;;9.20;99.90;;;;;;10463228;28;20112;-68
2024/01/27 11:48:29;;;;;;;11.55;3.25;;;9.30;99.90;;;;;;10454585;28;20032;-68
2024/01/27 11:53:30;;;;;;;7.38;2.85;;;9.30;99.90;;;;;;10462511;28;20026;-69
2024/01/27 11:58:33;;;;;;;9.65;3.53;;;9.30;99.90;;;;;;10468995;28;20063;-68
2024/01/27 12:03:34;;;;;;;8.50;2.95;;;9.30;99.90;;;;;;10455763;28;20474;-69
2024/01/27 12:08:35;;;;;;;8.60;3.13;;;9.40;99.90;;;;;;10467673;28;20020;-68
2024/01/27 12:13:36;;;;;;;8.15;3.20;;;9.40;99.90;;;;;;10468283;28;20018;-68
2024/01/27 12:18:37;;;;;;;3.55;2.17;;;9.40;99.90;;;;;;10460904;28;20029;-68
2024/01/27 12:23:53;;;;;;;9.45;2.80;;;9.40;99.90;;;;;;10446636;28;20500;-69
2024/01/27 12:28:55;;;;;;;7.30;2.40;;;9.40;99.90;;;;;;10467888;28;20058;-69
2024/01/27 12:33:58;;;;;;;9.85;2.72;;;9.30;99.90;;;;;;10449925;28;20580;-68
2024/01/27 12:39:05;;;;;;;7.03;2.40;;;9.30;99.90;;;;;;10451197;28;20025;-69
2024/01/27 12:44:06;;;;;;;11.55;3.42;;;9.30;99.90;;;;;;10443099;28;20539;-70
2024/01/27 12:49:08;;;;;;;6.05;2.72;;;9.40;99.90;;;;;;10461519;28;20112;-68
2024/01/27 12:54:08;;;;;;;7.47;2.60;;;9.30;99.90;;;;;;10464147;28;20032;-69
2024/01/27 12:59:09;;;;;;;6.43;2.70;;;9.30;99.90;;;;;;10466582;28;20029;-69
2024/01/27 13:04:10;;;;;;;10.07;3.20;;;9.30;99.90;;;;;;10451420;28;20021;-70
2024/01/27 13:09:13;;;;;;;7.38;3.15;;;9.50;99.90;;;;;;10445672;28;20041;-67
2024/01/27 13:14:16;;;;;;;9.80;3.55;;;9.30;99.90;;;;;;10454305;28;20036;-67
2024/01/27 13:19:16;;;;;;;8.32;2.88;;;9.30;99.90;;;;;;10460373;28;20067;-70
2024/01/27 13:24:17;;;;;;;13.35;3.47;;;9.30;99.90;;;;;;10456101;28;20725;-66
2024/01/27 13:29:17;;;;;;;9.13;2.95;;;9.30;99.90;;;;;;10452522;28;20484;-66
2024/01/27 13:34:18;;;;;;;6.70;2.97;;;9.30;99.90;;;;;;10461385;28;20025;-66
2024/01/27 13:39:19;;;;;;;8.38;2.80;;;9.20;99.90;;;;;;10454653;28;20119;-67
2024/01/27 13:44:19;;;;;;;8.68;3.33;;;9.20;99.90;;;;;;10457093;28;20032;-66
2024/01/27 13:49:20;;;;;;;11.10;3.72;;;9.20;99.90;;;;;;10463107;28;20162;-66
2024/01/27 13:54:21;;;;;;;6.38;2.83;;;9.10;99.90;;;;;;10461263;28;20021;-66
2024/01/27 13:59:21;;;;;;;7.22;3.05;;;9.10;99.90;;;;;;10465633;28;20377;-67
2024/01/27 14:04:22;;;;;;;6.75;2.58;;;9.10;99.90;;;;;;10459027;28;20459;-66
2024/01/27 14:09:23;;;;;;;9.13;3.83;;;9.10;99.90;;;;;;10452065;28;20055;-66
2024/01/27 14:14:24;;;;;;;7.32;3.08;;;9.10;99.90;;;;;;10450060;28;20106;-66
2024/01/27 14:19:24;;;;;;;5.15;2.40;;;9.10;99.90;;;;;;10454038;28;20104;-66
2024/01/27 14:24:26;;;;;;;5.43;2.38;;;9.10;99.90;;;;;;10454134;28;20236;-66
2024/01/27 14:29:26;;;;;;;5.95;2.58;;;9.10;99.90;;;;;;10456461;28;20036;-66
2024/01/27 14:34:27;;;;;;;7.30;2.60;;;9.00;99.90;;;;;;10451246;28;20118;-66
2024/01/27 14:39:27;;;;;;;9.23;3.20;;;9.00;99.90;;;;;;10456673;28;20037;-66
2024/01/27 14:44:28;;;;;;;6.35;2.60;;;9.00;99.90;;;;;;10463276;28;20075;-66
2024/01/27 14:49:30;;;;;;;6.53;2.70;;;9.00;99.90;;;;;;10462968;28;20056;-68
2024/01/27 14:54:31;;;;;;;7.22;2.90;;;9.00;99.90;;;;;;10454919;28;20092;-65
2024/01/27 14:59:31;;;;;;;6.28;2.85;;;9.00;99.90;;;;;;10462449;28;20044;-68
2024/01/27 15:04:32;;;;;;;6.60;2.90;;;9.00;99.90;;;;;;10449347;28;20032;-66
2024/01/27 15:09:33;;;;;;;6.32;2.90;;;9.00;99.90;;;;;;10455547;28;20029;-66
2024/01/27 15:14:33;;;;;;;7.43;2.67;;;9.00;99.90;;;;;;10460975;28;20111;-66
2024/01/27 15:19:34;;;;;;;6.75;2.78;;;8.00;99.90;;;;;;10453121;28;20036;-66
2024/01/27 15:24:36;;;;;;;5.45;3.92;;;8.90;99.90;;;;;;10450678;28;20060;-66
2024/01/27 15:29:37;;;;;;;7.43;2.65;;;8.90;99.90;;;;;;10458258;28;20531;-66
2024/01/27 15:34:37;;;;;;;5.47;2.40;;;8.90;99.90;;;;;;10457930;28;20024;-67
2024/01/27 15:39:38;;;;;;;6.18;2.45;;;8.90;99.90;;;;;;10458556;28;20037;-66
2024/01/27 15:44:39;;;;;;;8.00;2.03;;;8.90;99.90;;;;;;10458970;28;20047;-66
2024/01/27 15:49:40;;;;;;;7.80;2.30;;;8.80;99.90;;;;;;10453281;28;20032;-67
2024/01/27 15:54:43;;;;;;;7.22;2.30;;;8.80;99.90;;;;;;10448903;28;20526;-66
2024/01/27 15:59:45;;;;;;;5.38;2.33;;;8.80;99.90;;;;;;10464210;28;20532;-67
2024/01/27 16:04:45;;;;;;;5.00;2.13;;;8.80;99.90;;;;;;10469078;28;20023;-66
2024/01/27 16:09:46;;;;;;;6.13;2.33;;;8.80;99.90;;;;;;10467790;28;20026;-68
2024/01/27 16:14:47;;;;;;;5.93;2.47;;;8.80;99.90;;;;;;10450913;28;20587;-67
2024/01/27 16:19:48;;;;;;;7.22;2.08;;;8.80;99.90;;;;;;10459731;28;20025;-68
2024/01/27 16:24:51;;;;;;;5.97;2.30;;;10.10;99.90;;;;;;10460802;28;20012;-68
2024/01/27 16:29:53;;;;;;;7.07;2.60;;;8.80;99.90;;;;;;10463442;28;20039;-67
2024/01/27 16:34:54;;;;;;;6.90;2.35;;;8.80;99.90;;;;;;10462449;28;20104;-67
2024/01/27 16:39:54;;;;;;;5.88;2.38;;;8.80;99.90;;;;;;10454773;28;20081;-68
2024/01/27 16:44:55;;;;;;;6.97;2.35;;;8.80;99.90;;;;;;10460248;28;20029;-68
2024/01/27 16:49:56;;;;;;;4.63;2.10;;;8.70;99.90;;;;;;10458238;28;20056;-68
2024/01/27 16:54:57;;;;;;;7.53;2.25;;;8.70;99.90;;;;;;10461563;28;20021;-69
2024/01/27 16:59:57;;;;;;;5.40;1.70;;;8.70;99.90;;;;;;10458071;28;20048;-68
2024/01/27 17:05:03;;;;;;;7.47;2.30;;;8.60;99.90;;;;;;10461514;28;20029;-68
2024/01/27 17:10:04;;;;;;;5.28;2.25;;;8.50;99.90;;;;;;10455060;28;20037;-67
2024/01/27 17:15:06;;;;;;;6.18;2.00;;;8.50;99.90;;;;;;10458625;28;20546;-67
2024/01/27 17:20:08;;;;;;;8.10;2.60;;;8.50;99.90;;;;;;10453314;28;20036;-67
2024/01/27 17:25:08;;;;;;;3.90;2.03;;;8.50;99.90;;;;;;10458040;28;20367;-67
2024/01/27 17:30:09;;;;;;;7.10;2.10;;;8.50;99.90;;;;;;10467607;28;20033;-68
2024/01/27 17:35:10;;;;;;;3.20;1.83;;;8.50;99.90;;;;;;10455242;28;20511;-68
2024/01/27 17:40:11;;;;;;;5.40;2.28;;;8.50;99.90;;;;;;10453056;28;20565;-68
2024/01/27 17:45:12;;;;;;;9.60;2.50;;;8.50;99.90;;;;;;10452973;28;20041;-67
2024/01/27 17:50:12;;;;;;;7.03;2.70;;;8.50;99.90;;;;;;10462804;28;20012;-68
2024/01/27 17:55:13;;;;;;;9.48;3.30;;;8.60;99.90;;;;;;10440760;28;20028;-68
2024/01/27 18:00:16;;;;;;;8.27;2.95;;;8.60;99.90;;;;;;10449339;28;20034;-67
2024/01/27 18:05:17;;;;;;;6.35;2.80;;;8.60;99.90;;;;;;10457641;28;20075;-67
2024/01/27 18:10:17;;;;;;;8.00;3.03;;;8.60;99.90;;;;;;10459961;28;20100;-68
2024/01/27 18:15:18;;;;;;;6.80;3.33;;;8.50;99.90;;;;;;10458142;28;20031;-68
2024/01/27 18:20:19;;;;;;;4.35;2.53;;;8.50;99.90;;;;;;10466542;28;20067;-67
2024/01/27 18:25:21;;;;;;;4.50;2.80;;;8.40;99.90;;;;;;10457031;28;20511;-67
2024/01/27 18:30:22;;;;;;;7.35;2.65;;;8.40;99.90;;;;;;10430402;28;20064;-68
2024/01/27 18:35:22;;;;;;;7.28;3.03;;;8.40;99.90;;;;;;10458668;28;20858;-66
2024/01/27 18:40:23;;;;;;;7.05;3.08;;;8.40;99.90;;;;;;10452214;28;20036;-68
2024/01/27 18:45:24;;;;;;;5.57;2.28;;;8.30;99.90;;;;;;10447180;28;20356;-67
2024/01/27 18:50:25;;;;;;;6.22;2.53;;;8.30;99.90;;;;;;10447626;28;20013;-67
2024/01/27 18:55:29;;;;;;;8.70;3.25;;;8.30;99.90;;;;;;10446606;28;20063;-67
2024/01/27 19:00:32;;;;;;;6.80;2.97;;;8.20;99.90;;;;;;10435305;28;20025;-68
2024/01/27 19:05:33;;;;;;;7.03;2.40;;;8.30;99.90;;;;;;10439281;28;20112;-68
2024/01/27 19:10:34;;;;;;;7.22;3.15;;;8.20;99.90;;;;;;10435510;28;20024;-67
2024/01/27 19:15:35;;;;;;;6.40;2.90;;;8.20;99.90;;;;;;10434423;28;20036;-66
2024/01/27 19:20:36;;;;;;;6.45;2.60;;;8.20;99.90;;;;;;10441241;28;20439;-67
2024/01/27 19:25:38;;;;;;;5.18;2.70;;;8.20;99.90;;;;;;10445309;28;20631;-67
2024/01/27 19:30:39;;;;;;;6.30;2.97;;;8.20;99.90;;;;;;10445296;28;20476;-67
2024/01/27 19:35:39;;;;;;;7.40;2.83;;;8.10;99.90;;;;;;10451299;28;20020;-67
2024/01/27 19:40:40;;;;;;;5.90;2.92;;;8.10;99.90;;;;;;10440726;28;20408;-67
2024/01/27 19:45:41;;;;;;;5.68;2.47;;;8.10;99.90;;;;;;10447015;28;20480;-66
2024/01/27 19:50:41;;;;;;;6.35;3.33;;;8.10;99.90;;;;;;10454719;28;20545;-67
2024/01/27 19:55:42;;;;;;;7.43;3.50;;;8.10;99.90;;;;;;10445973;28;20037;-67
2024/01/27 20:00:42;;;;;;;6.68;3.10;;;8.00;99.90;;;;;;10446555;28;20017;-67
2024/01/27 20:05:43;;;;;;;5.32;3.00;;;8.00;99.90;;;;;;10442364;28;20061;-67
2024/01/27 20:10:43;;;;;;;6.05;2.70;;;8.00;99.90;;;;;;10451519;28;20033;-67
2024/01/27 20:15:44;;;;;;;8.13;3.10;;;8.00;99.90;;;;;;10447233;28;20134;-67
2024/01/27 20:20:45;;;;;;;7.10;3.00;;;8.00;99.90;;;;;;10452899;28;20035;-68
2024/01/27 20:25:45;;;;;;;3.85;2.60;;;8.00;99.90;;;;;;10442130;28;20107;-67
2024/01/27 20:30:46;;;;;;;8.52;3.20;;;8.00;99.90;;;;;;10442412;28;20404;-67
2024/01/27 20:35:47;;;;;;;6.95;3.22;;;7.90;99.90;;;;;;10450790;28;20032;-67
2024/01/27 20:40:48;;;;;;;7.30;3.25;;;7.90;99.90;;;;;;10436301;28;20400;-67
2024/01/27 20:45:48;;;;;;;7.63;3.15;;;7.90;99.90;;;;;;10436343;28;20060;-67
2024/01/27 20:50:49;;;;;;;4.82;3.22;;;7.90;99.90;;;;;;10453474;28;20099;-67
2024/01/27 20:55:50;;;;;;;7.40;2.85;;;7.90;99.90;;;;;;10451619;28;20418;-66
2024/01/27 21:00:51;;;;;;;4.72;2.85;;;7.90;99.90;;;;;;10444108;28;20493;-68
2024/01/27 21:05:52;;;;;;;4.70;3.05;;;7.90;99.90;;;;;;10444921;28;20032;-67
2024/01/27 21:10:53;;;;;;;7.53;3.13;;;7.80;99.90;;;;;;10437030;28;20461;-67
2024/01/27 21:15:53;;;;;;;7.40;2.90;;;7.80;99.90;;;;;;10441257;28;20013;-67
2024/01/27 21:20:54;;;;;;;6.30;3.08;;;7.80;99.90;;;;;;10441891;28;20421;-67
2024/01/27 21:25:55;;;;;;;7.60;3.20;;;7.80;99.90;;;;;;10439249;28;20033;-67
2024/01/27 21:30:56;;;;;;;6.80;3.00;;;7.80;99.90;;;;;;10442539;28;20151;-66
2024/01/27 21:35:57;;;;;;;5.72;2.88;;;7.80;99.90;;;;;;10442928;28;20029;-67
2024/01/27 21:40:57;;;;;;;9.68;3.30;;;7.80;99.90;;;;;;10441143;28;20014;-67
2024/01/27 21:45:58;;;;;;;7.47;3.30;;;7.80;99.90;;;;;;10438127;28;20032;-67
2024/01/27 21:50:59;;;;;;;6.68;2.95;;;7.80;99.90;;;;;;10444741;28;20104;-66
2024/01/27 21:55:59;;;;;;;6.57;3.17;;;7.70;99.90;;;;;;10441871;28;20033;-67
2024/01/27 22:01:00;;;;;;;7.70;3.15;;;7.70;99.90;;;;;;10444998;28;20111;-67
2024/01/27 22:06:04;;;;;;;7.15;3.10;;;7.70;99.90;;;;;;10450080;28;20484;-67
2024/01/27 22:11:05;;;;;;;6.15;3.70;;;7.70;99.90;;;;;;10442302;28;20080;-67
2024/01/27 22:16:06;;;;;;;8.27;3.22;;;7.70;99.90;;;;;;10436396;28;20124;-66
2024/01/27 22:21:06;;;;;;;8.00;3.00;;;7.70;99.90;;;;;;10446152;28;20214;-66
2024/01/27 22:26:09;;;;;;;8.63;3.03;;;7.70;99.90;;;;;;10450804;28;20072;-67
2024/01/27 22:31:09;;;;;;;7.15;3.53;;;7.60;99.90;;;;;;10448837;28;20064;-67
2024/01/27 22:36:12;;;;;;;7.35;3.30;;;7.60;99.90;;;;;;10440703;28;20087;-67
2024/01/27 22:41:13;;;;;;;6.25;3.15;;;7.60;99.90;;;;;;10444905;28;20156;-67
2024/01/27 22:46:14;;;;;;;6.25;3.22;;;7.60;99.90;;;;;;10442642;28;20094;-67
2024/01/27 22:51:14;;;;;;;5.18;2.80;;;7.60;99.90;;;;;;10453655;28;20207;-67
2024/01/27 22:56:15;;;;;;;7.47;3.40;;;7.60;99.90;;;;;;10439347;28;20032;-67
2024/01/27 23:01:16;;;;;;;6.07;3.15;;;7.60;99.90;;;;;;10438588;28;20043;-67
2024/01/27 23:06:16;;;;;;;6.25;3.42;;;7.50;99.90;;;;;;10435959;28;20438;-68
2024/01/27 23:11:17;;;;;;;5.80;3.15;;;7.50;99.90;;;;;;10438259;28;20477;-66
2024/01/27 23:16:18;;;;;;;9.77;3.03;;;7.50;99.90;;;;;;10431033;28;20029;-67
2024/01/27 23:21:19;;;;;;;6.93;3.35;;;7.50;99.90;;;;;;10442773;28;20017;-67
2024/01/27 23:26:20;;;;;;;6.57;3.30;;;7.50;99.90;;;;;;10436132;28;20066;-67
2024/01/27 23:31:20;;;;;;;4.88;3.05;;;7.50;99.90;;;;;;10437199;28;20044;-67
2024/01/27 23:36:21;;;;;;;6.85;3.53;;;7.50;99.90;;;;;;10434196;28;20508;-67
2024/01/27 23:41:21;;;;;;;7.15;3.13;;;7.40;99.90;;;;;;10441122;28;20025;-67
2024/01/27 23:46:22;;;;;;;9.10;3.60;;;7.40;99.90;;;;;;10440636;28;20029;-67
2024/01/27 23:51:22;;;;;;;7.53;3.13;;;7.40;99.90;;;;;;10432108;28;20108;-66
2024/01/27 23:56:24;;;;;;;5.65;3.42;;;7.40;99.90;;;;;;10435209;28;20029;-68
